Time;durP1;ratioP1;P1;durP2;ratioP2;P2;SDS_P1;SDS_P2;PMS_P1;PMS_P2;Temp;Humidity;BMP_temperature;BMP_pressure;BME280_temperature;BME280_humidity;BME280_pressure;Samples;Min_cycle;Max_cycle;Signal;HPM_P1;HPM_P2
2021/12/13 00:00:42;;;;;;;;;;;;;;;3.23;79.71;100725.19;4981543;28;20016;-87
2021/12/13 00:03:12;;;;;;;;;;;;;;;3.24;79.67;100721.72;5005423;28;19918;-85
2021/12/13 00:05:46;;;;;;;;;;;;;;;3.23;79.73;100715.59;4982592;28;19929;-83
2021/12/13 00:08:13;;;;;;;;;;;;;;;3.30;79.94;100723.47;4982999;28;19925;-83
2021/12/13 00:10:41;;;;;;;;;;;;;;;3.28;79.79;100718.22;4981104;28;20063;-84
2021/12/13 00:13:17;;;;;;;;;;;;;;;3.34;79.95;100718.22;4981389;28;20443;-83
2021/12/13 00:15:50;;;;;;;;;;;;;;;3.31;79.96;100717.38;4982918;28;19960;-86
2021/12/13 00:18:19;;;;;;;;;;;;;;;3.32;80.02;100714.75;4982488;28;19918;-83
2021/12/13 00:20:48;;;;;;;;;;;;;;;3.38;80.19;100717.38;4983396;28;19941;-83
2021/12/13 00:23:13;;;;;;;;;;;;;;;3.37;80.24;100715.63;4982799;28;20281;-83
2021/12/13 04:16:50;;;;;;;;;;;;;;;3.41;100.00;100719.97;4961640;28;20285;-83
2021/12/13 04:19:20;;;;;;;;;;;;;;;3.37;100.00;100726.09;4954155;28;19937;-83
2021/12/13 04:21:48;;;;;;;;;;;;;;;3.33;100.00;100728.72;4956399;28;19929;-84
2021/12/13 04:24:17;;;;;;;;;;;;;;;3.27;100.00;100727.84;4980754;28;19922;-85
2021/12/13 04:26:45;;;;;;;;;;;;;;;3.23;99.79;100730.44;4972605;28;19926;-84
2021/12/13 04:29:21;;;;;;;;;;;;;;;3.20;99.72;100738.28;4954771;28;19918;-85
2021/12/13 04:31:48;;;;;;;;;;;;;;;3.16;99.22;100740.03;4980054;28;19929;-86
2021/12/13 04:34:14;;;;;;;;;;;;;;;3.11;99.22;100735.63;4973539;28;20424;-85
2021/12/13 04:36:44;;;;;;;;;;;;;;;3.08;99.04;100740.00;4973979;28;19922;-85
2021/12/13 04:39:22;;;;;;;;;;;;;;;3.05;98.88;100742.63;4973657;28;19926;-86
2021/12/13 04:41:53;;;;;;;;;;;;;;;2.99;98.72;100739.09;4954983;28;20008;-84
2021/12/13 04:44:42;;;;;;;;;;;;;;;2.97;98.57;100744.34;4972265;28;19928;-86
2021/12/13 04:47:09;;;;;;;;;;;;;;;2.94;98.37;100741.72;4968348;28;20022;-85
2021/12/13 04:49:36;;;;;;;;;;;;;;;2.93;98.17;100746.94;4972972;28;19918;-83
2021/12/13 04:52:05;;;;;;;;;;;;;;;2.89;98.00;100746.06;4955602;28;19922;-86
2021/12/13 04:54:33;;;;;;;;;;;;;;;2.86;97.91;100753.91;4973304;28;19922;-86
2021/12/13 04:56:59;;;;;;;;;;;;;;;2.84;97.80;100753.00;4973427;28;19962;-84
2021/12/13 04:59:25;;;;;;;;;;;;;;;2.85;97.96;100750.38;4971924;28;19918;-85
2021/12/13 05:01:54;;;;;;;;;;;;;;;3.06;100.00;100752.22;4973293;28;19918;-85
2021/12/13 05:04:20;;;;;;;;;;;;;;;3.04;100.00;100755.69;4971473;28;19922;-84
2021/12/13 05:06:45;;;;;;;;;;;;;;;3.01;100.00;100753.06;4972020;28;19965;-87
2021/12/13 05:09:16;;;;;;;;;;;;;;;2.98;100.00;100758.28;4973158;28;20388;-87
2021/12/13 05:11:46;;;;;;;;;;;;;;;2.93;100.00;100763.50;4972951;28;20329;-86
2021/12/13 05:14:12;;;;;;;;;;;;;;;2.86;100.00;100767.00;4954073;28;19925;-86
2021/12/13 05:17:03;;;;;;;;;;;;;;;2.85;100.00;100765.22;4972213;28;19922;-88
2021/12/13 05:19:34;;;;;;;;;;;;;;;2.77;100.00;100764.31;4969632;28;19956;-87
2021/12/13 05:22:01;;;;;;;;;;;;;;;2.76;100.00;100765.19;4972476;28;20320;-84
2021/12/13 05:24:28;;;;;;;;;;;;;;;2.70;100.00;100759.06;4972794;28;20021;-84
2021/12/13 05:27:13;;;;;;;;;;;;;;;2.74;100.00;100773.03;4972844;28;19922;-86
2021/12/13 05:29:49;;;;;;;;;;;;;;;2.70;100.00;100763.44;4954053;28;19926;-84
2021/12/13 05:32:21;;;;;;;;;;;;;;;2.65;100.00;100762.50;4954993;28;20326;-83
2021/12/13 05:34:49;;;;;;;;;;;;;;;2.64;100.00;100769.47;4973079;28;19945;-83
2021/12/13 05:37:17;;;;;;;;;;;;;;;2.62;100.00;100767.75;4972813;28;19918;-83
2021/12/13 05:39:57;;;;;;;;;;;;;;;2.60;100.00;100764.22;4972870;28;19946;-83
2021/12/13 05:42:33;;;;;;;;;;;;;;;2.59;100.00;100773.81;4972733;28;19928;-84
2021/12/13 09:05:10;;;;;;;;;;;;;;;2.12;82.51;100844.97;4946301;28;19995;-83
2021/12/13 09:07:35;;;;;;;;;;;;;;;2.17;82.71;100835.44;4926349;29;19962;-85
2021/12/13 09:10:01;;;;;;;;;;;;;;;2.16;83.02;100834.56;4926888;28;19953;-86
2021/12/13 09:12:29;;;;;;;;;;;;;;;2.20;82.74;100838.06;4945354;29;19950;-84
2021/12/13 09:14:56;;;;;;;;;;;;;;;2.18;82.44;100839.81;4926134;29;20378;-85
2021/12/13 09:17:41;;;;;;;;;;;;;;;2.23;82.24;100837.22;4939785;28;20393;-85
2021/12/13 09:20:14;;;;;;;;;;;;;;;2.22;82.20;100840.69;4936834;28;19937;-85
2021/12/13 09:22:42;;;;;;;;;;;;;;;2.23;82.06;100843.31;4926806;29;19926;-83
2021/12/13 09:25:11;;;;;;;;;;;;;;;2.23;82.02;100842.47;4944073;29;19918;-83
2021/12/13 09:27:43;;;;;;;;;;;;;;;2.27;82.09;100852.09;4944589;29;19918;-83
2021/12/13 09:30:11;;;;;;;;;;;;;;;2.31;81.89;100857.38;4926607;29;19922;-83
2021/12/13 09:32:39;;;;;;;;;;;;;;;2.28;81.86;100856.44;4924493;29;20178;-84
2021/12/13 09:35:24;;;;;;;;;;;;;;;2.31;81.77;100856.47;4926470;28;19949;-87
2021/12/13 09:37:50;;;;;;;;;;;;;;;2.29;81.49;100859.06;4947930;28;19933;-83
2021/12/13 09:40:18;;;;;;;;;;;;;;;2.33;81.49;100863.47;4947087;29;19922;-83
2021/12/13 09:42:48;;;;;;;;;;;;;;;2.36;81.50;100866.13;4929327;28;20005;-84
2021/12/13 09:45:19;;;;;;;;;;;;;;;2.39;81.52;100869.63;4947878;29;19973;-86
2021/12/13 09:47:44;;;;;;;;;;;;;;;2.35;81.24;100869.59;4946709;29;19923;-84
2021/12/13 09:50:16;;;;;;;;;;;;;;;2.37;81.29;100867.00;4948226;28;19944;-85
2021/12/13 09:52:47;;;;;;;;;;;;;;;2.40;81.17;100866.16;4947839;29;19929;-85
2021/12/13 09:55:18;;;;;;;;;;;;;;;2.42;81.25;100867.03;4948413;28;20400;-87
2021/12/13 09:57:57;;;;;;;;;;;;;;;2.44;81.29;100862.69;4953691;28;20013;-84
2021/12/13 10:00:22;;;;;;;;;;;;;;;2.44;81.11;100863.56;4947459;28;19941;-84
2021/12/13 10:02:50;;;;;;;;;;;;;;;2.49;81.24;100866.19;4928622;28;19922;-87
2021/12/13 10:05:17;;;;;;;;;;;;;;;2.49;81.29;100858.34;4939784;28;19938;-83
2021/12/13 10:07:45;;;;;;;;;;;;;;;2.52;81.70;100854.03;4966828;28;19978;-86
2021/12/13 10:10:17;;;;;;;;;;;;;;;2.56;81.99;100851.44;4965686;28;20259;-86
2021/12/13 10:12:45;;;;;;;;;;;;;;;2.57;82.05;100848.84;4966575;28;20428;-84
2021/12/13 10:15:21;;;;;;;;;;;;;;;2.63;82.33;100838.41;4966274;28;19974;-84
2021/12/13 10:17:48;;;;;;;;;;;;;;;2.63;82.36;100827.94;4948450;28;20005;-84
2021/12/13 10:20:22;;;;;;;;;;;;;;;2.66;82.49;100827.94;4966658;28;20369;-87
2021/12/13 10:22:49;;;;;;;;;;;;;;;2.67;82.56;100839.31;4949006;28;19976;-86
2021/12/13 10:25:18;;;;;;;;;;;;;;;2.67;82.34;100827.06;4966449;28;19953;-85
2021/12/13 10:27:43;;;;;;;;;;;;;;;2.69;82.05;100827.97;4966187;28;19973;-87
2021/12/13 10:30:13;;;;;;;;;;;;;;;2.72;82.12;100820.13;4949216;28;19954;-86
2021/12/13 10:32:39;;;;;;;;;;;;;;;2.75;82.31;100821.91;4964999;28;20322;-87
2021/12/13 10:35:09;;;;;;;;;;;;;;;2.77;82.32;100824.53;4965831;28;19974;-86
2021/12/13 10:37:37;;;;;;;;;;;;;;;2.79;82.23;100820.16;4972893;28;19962;-85
2021/12/13 10:40:26;;;;;;;;;;;;;;;2.82;82.24;100812.31;4972588;28;20024;-85
2021/12/13 10:42:59;;;;;;;;;;;;;;;2.84;82.36;100810.59;4957158;28;19922;-83
2021/12/13 10:45:26;;;;;;;;;;;;;;;2.84;82.49;100816.72;4966439;28;19930;-86
2021/12/13 10:47:53;;;;;;;;;;;;;;;2.88;82.38;100805.38;4963377;28;20022;-87
2021/12/13 10:50:22;;;;;;;;;;;;;;;2.88;82.24;100800.13;4966524;28;19923;-86
2021/12/13 10:52:48;;;;;;;;;;;;;;;2.93;81.99;100800.16;4966090;28;19922;-86
2021/12/13 10:55:19;;;;;;;;;;;;;;;2.94;82.01;100799.31;4965864;28;19923;-87
2021/12/13 10:57:48;;;;;;;;;;;;;;;2.97;82.26;100801.03;4965856;28;19953;-86
2021/12/13 11:00:19;;;;;;;;;;;;;;;2.99;82.38;100800.19;4948635;28;19922;-87
2021/12/13 11:02:44;;;;;;;;;;;;;;;3.03;82.27;100803.69;4964343;28;19926;-87
2021/12/13 11:05:14;;;;;;;;;;;;;;;3.02;82.21;100805.44;4963746;28;19929;-86
2021/12/13 11:07:41;;;;;;;;;;;;;;;3.05;82.36;100805.47;4964227;28;20393;-86
2021/12/13 11:10:08;;;;;;;;;;;;;;;3.07;82.42;100800.22;4964040;28;20472;-85
2021/12/13 11:12:37;;;;;;;;;;;;;;;3.11;82.69;100793.25;4963879;28;20046;-83
2021/12/13 11:15:06;;;;;;;;;;;;;;;3.11;82.69;100788.00;4975765;28;19926;-86
2021/12/13 11:17:34;;;;;;;;;;;;;;;3.15;82.65;100784.56;4982112;28;20373;-87
2021/12/13 11:20:02;;;;;;;;;;;;;;;3.14;82.61;100788.91;4981967;28;19933;-86
2021/12/13 11:22:29;;;;;;;;;;;;;;;3.17;82.59;100793.28;4982846;28;19949;-86
2021/12/13 11:24:57;;;;;;;;;;;;;;;3.21;82.67;100782.81;4982688;28;19918;-86
2021/12/13 11:27:24;;;;;;;;;;;;;;;3.23;82.43;100777.59;4983233;28;19928;-87
2021/12/13 11:29:51;;;;;;;;;;;;;;;3.24;82.58;100774.97;4982937;28;19973;-88
2021/12/13 11:32:47;;;;;;;;;;;;;;;3.29;82.86;100769.75;4980565;28;20341;-87
2021/12/13 11:35:31;;;;;;;;;;;;;;;3.30;82.80;100774.09;4982153;28;20331;-88
2021/12/13 11:37:56;;;;;;;;;;;;;;;3.30;82.77;100768.00;4982959;28;20012;-87
2021/12/13 11:40:40;;;;;;;;;;;;;;;3.33;82.89;100768.88;4981966;28;19997;-87
2021/12/13 11:43:12;;;;;;;;;;;;;;;3.32;83.19;100768.88;4983161;28;19918;-87
2021/12/13 11:45:56;;;;;;;;;;;;;;;3.38;83.34;100759.31;4982806;28;20297;-86
2021/12/13 11:48:42;;;;;;;;;;;;;;;3.37;83.26;100759.28;4980197;28;20630;-86
2021/12/13 11:51:26;;;;;;;;;;;;;;;3.38;83.35;100764.53;4981326;28;20016;-86
2021/12/13 11:54:10;;;;;;;;;;;;;;;3.41;83.58;100767.13;4982085;28;19918;-84
2021/12/13 11:56:48;;;;;;;;;;;;;;;3.42;83.64;100763.66;4981961;28;20028;-86
2021/12/13 11:59:37;;;;;;;;;;;;;;;3.49;83.59;100763.69;4989110;28;20393;-86
2021/12/13 12:02:10;;;;;;;;;;;;;;;3.51;83.81;100757.56;5006110;28;20016;-87
2021/12/13 12:04:47;;;;;;;;;;;;;;;3.55;83.94;100758.44;4984102;28;20361;-88
2021/12/13 12:07:13;;;;;;;;;;;;;;;3.52;84.01;100756.69;4983505;28;19925;-88
2021/12/13 12:09:57;;;;;;;;;;;;;;;3.56;84.35;100750.59;4985887;28;19949;-84
2021/12/13 12:12:41;;;;;;;;;;;;;;;3.56;84.27;100749.72;4986692;28;20351;-84
2021/12/13 12:15:07;;;;;;;;;;;;;;;3.61;84.30;100747.97;5003474;28;19968;-85
2021/12/13 12:17:34;;;;;;;;;;;;;;;3.60;84.47;100744.47;4984621;28;19968;-83
2021/12/13 12:19:59;;;;;;;;;;;;;;;3.62;84.55;100740.13;5002571;28;19921;-88
2021/12/13 12:22:35;;;;;;;;;;;;;;;3.63;84.47;100740.97;4984351;28;20435;-83
2021/12/13 12:25:01;;;;;;;;;;;;;;;3.67;84.75;100742.75;4986042;28;20373;-86
2021/12/13 12:27:28;;;;;;;;;;;;;;;3.68;84.83;100749.72;4985257;28;19965;-84
2021/12/13 12:29:56;;;;;;;;;;;;;;;3.71;85.14;100739.22;5001893;28;19922;-86
2021/12/13 12:32:29;;;;;;;;;;;;;;;3.75;85.18;100745.34;4986259;28;20381;-86
2021/12/13 12:35:05;;;;;;;;;;;;;;;3.74;85.14;100733.13;5003178;28;19921;-87
2021/12/13 12:37:49;;;;;;;;;;;;;;;3.74;85.14;100739.22;4996451;28;19929;-84
2021/12/13 12:40:35;;;;;;;;;;;;;;;3.78;85.26;100734.84;4985542;28;19918;-86
2021/12/13 12:43:06;;;;;;;;;;;;;;;3.79;85.18;100742.72;4979286;28;19918;-87
2021/12/13 12:45:41;;;;;;;;;;;;;;;3.86;85.55;100738.38;4985128;28;19927;-84
2021/12/13 12:48:18;;;;;;;;;;;;;;;3.85;85.58;100741.00;4980255;28;20008;-85
2021/12/13 12:50:45;;;;;;;;;;;;;;;3.95;85.93;100737.50;4977351;28;19926;-84
2021/12/13 12:53:22;;;;;;;;;;;;;;;4.08;86.71;100730.47;4985298;28;19979;-85
2021/12/13 12:55:55;;;;;;;;;;;;;;;4.24;88.01;100740.06;4984966;28;19924;-86
2021/12/13 12:58:27;;;;;;;;;;;;;;;4.32;89.17;100738.31;5003058;28;20033;-84
2021/12/13 13:00:54;;;;;;;;;;;;;;;4.35;90.26;100732.19;5002327;28;19922;-88
2021/12/13 13:03:23;;;;;;;;;;;;;;;4.36;91.12;100732.19;4998956;28;20288;-84
2021/12/13 13:05:49;;;;;;;;;;;;;;;4.35;91.87;100735.66;5002446;28;20335;-86
2021/12/13 13:08:26;;;;;;;;;;;;;;;4.30;92.42;100740.06;5002330;28;20356;-86
2021/12/13 13:10:53;;;;;;;;;;;;;;;4.21;92.84;100741.81;4984024;28;19953;-83
2021/12/13 13:13:18;;;;;;;;;;;;;;;4.07;93.08;100737.47;4984615;28;20008;-85
2021/12/13 13:15:46;;;;;;;;;;;;;;;3.99;93.23;100734.00;4981110;28;20021;-87
2021/12/13 13:18:16;;;;;;;;;;;;;;;3.92;93.39;100737.47;5000141;28;19979;-87
2021/12/13 13:20:45;;;;;;;;;;;;;;;3.83;93.38;100738.38;4984947;28;19922;-87
2021/12/13 13:23:11;;;;;;;;;;;;;;;3.79;93.83;100734.00;5002131;28;19924;-87
2021/12/13 13:25:39;;;;;;;;;;;;;;;3.77;94.28;100728.75;4981103;28;20324;-86
2021/12/13 13:28:13;;;;;;;;;;;;;;;3.79;95.27;100726.13;4985249;28;19918;-87
2021/12/13 13:30:53;;;;;;;;;;;;;;;3.77;96.92;100723.50;5008872;28;19929;-83
2021/12/13 13:33:28;;;;;;;;;;;;;;;3.91;99.03;100727.88;4983576;28;19973;-84
2021/12/13 13:35:54;;;;;;;;;;;;;;;4.07;100.00;100721.75;5002006;28;19917;-86
2021/12/13 13:38:19;;;;;;;;;;;;;;;4.30;100.00;100720.81;5002115;28;19925;-83
2021/12/13 13:40:44;;;;;;;;;;;;;;;4.44;100.00;100712.94;5002630;28;20340;-84
2021/12/13 13:43:11;;;;;;;;;;;;;;;4.55;100.00;100709.38;5002174;28;19925;-86
2021/12/13 13:45:39;;;;;;;;;;;;;;;4.64;100.00;100713.75;4984259;28;19929;-84
2021/12/13 13:48:13;;;;;;;;;;;;;;;4.73;100.00;100715.44;4978307;28;19925;-84
2021/12/13 13:50:45;;;;;;;;;;;;;;;4.82;100.00;100718.03;4985011;28;19933;-86
2021/12/13 13:53:21;;;;;;;;;;;;;;;4.88;100.00;100720.63;5001912;28;19921;-83
2021/12/13 13:55:48;;;;;;;;;;;;;;;4.95;100.00;100718.00;4976905;28;20284;-83
2021/12/13 13:58:20;;;;;;;;;;;;;;;4.99;100.00;100724.94;4984219;28;20374;-85
2021/12/13 14:00:48;;;;;;;;;;;;;;;5.04;100.00;100726.69;5001612;28;19929;-83
2021/12/13 14:03:14;;;;;;;;;;;;;;;5.08;100.00;100731.03;5001369;28;19926;-84
2021/12/13 14:05:41;;;;;;;;;;;;;;;5.14;100.00;100735.41;4984608;28;19999;-83
2021/12/13 14:08:19;;;;;;;;;;;;;;;5.16;100.00;100723.09;5001305;28;19918;-86
2021/12/13 14:10:45;;;;;;;;;;;;;;;5.19;100.00;100728.34;4984496;28;19924;-84
2021/12/13 14:13:10;;;;;;;;;;;;;;;5.23;100.00;100724.84;5002090;28;19913;-84
2021/12/13 14:15:37;;;;;;;;;;;;;;;5.26;100.00;100732.69;4984178;28;19960;-87
2021/12/13 14:18:02;;;;;;;;;;;;;;;5.28;100.00;100725.66;4983740;28;20057;-86
2021/12/13 14:20:31;;;;;;;;;;;;;;;5.32;100.00;100718.63;4983532;28;20009;-84
2021/12/13 14:23:00;;;;;;;;;;;;;;;5.36;100.00;100716.84;4985154;28;19918;-86
2021/12/13 14:25:30;;;;;;;;;;;;;;;5.38;100.00;100704.59;5004857;28;19929;-83
2021/12/13 14:27:55;;;;;;;;;;;;;;;4.53;100.00;100705.00;4987789;28;19925;-87
2021/12/13 14:30:33;;;;;;;;;;;;;;;3.97;100.00;100704.25;4986526;28;20442;-84
2021/12/13 14:32:58;;;;;;;;;;;;;;;3.75;100.00;100709.53;4985461;28;19972;-85
2021/12/13 14:35:32;;;;;;;;;;;;;;;3.57;100.00;100705.13;4987464;28;19976;-86
2021/12/13 14:38:10;;;;;;;;;;;;;;;3.48;100.00;100714.75;5006138;28;19922;-87
2021/12/13 14:40:48;;;;;;;;;;;;;;;3.36;100.00;100716.47;4988154;28;19932;-84
2021/12/13 14:43:17;;;;;;;;;;;;;;;3.30;100.00;100732.19;4986774;28;19972;-86
2021/12/13 14:45:42;;;;;;;;;;;;;;;3.25;100.00;100728.69;5010192;28;20449;-84
2021/12/13 14:48:08;;;;;;;;;;;;;;;3.21;100.00;100727.81;4985942;28;20388;-84
2021/12/13 14:50:33;;;;;;;;;;;;;;;3.20;100.00;100733.91;5004610;28;19929;-82
2021/12/13 14:53:05;;;;;;;;;;;;;;;3.12;100.00;100726.91;4986436;28;20397;-84
2021/12/13 14:55:44;;;;;;;;;;;;;;;3.09;100.00;100731.28;4986789;28;19933;-83
2021/12/13 14:58:10;;;;;;;;;;;;;;;3.04;100.00;100730.38;4983229;28;19972;-82
2021/12/13 15:00:41;;;;;;;;;;;;;;;3.01;100.00;100732.97;4985486;28;19930;-83
2021/12/13 15:03:10;;;;;;;;;;;;;;;2.97;99.85;100730.34;4985145;28;19928;-84
2021/12/13 15:05:38;;;;;;;;;;;;;;;2.96;99.36;100726.00;4986004;28;19926;-84
2021/12/13 15:08:07;;;;;;;;;;;;;;;2.95;99.11;100725.09;5004305;28;19948;-85
2021/12/13 15:10:36;;;;;;;;;;;;;;;2.88;98.96;100715.50;4985908;28;20549;-82
2021/12/13 15:13:03;;;;;;;;;;;;;;;2.87;98.50;100721.59;4986149;28;20325;-84
2021/12/13 15:15:35;;;;;;;;;;;;;;;2.79;98.23;100724.19;5005598;28;20289;-83
2021/12/13 15:18:11;;;;;;;;;;;;;;;2.86;97.84;100732.94;4985242;28;19917;-85
2021/12/13 15:20:45;;;;;;;;;;;;;;;2.82;97.50;100733.78;4994591;28;20261;-83
2021/12/13 15:23:16;;;;;;;;;;;;;;;2.76;97.21;100737.28;4987217;28;19923;-84
2021/12/13 15:25:48;;;;;;;;;;;;;;;2.76;96.91;100729.44;5003611;28;20376;-85
2021/12/13 15:28:19;;;;;;;;;;;;;;;2.71;96.46;100724.16;5008149;28;19976;-83
2021/12/13 15:30:45;;;;;;;;;;;;;;;2.70;96.02;100722.41;4988013;28;20788;-82
2021/12/13 15:33:10;;;;;;;;;;;;;;;2.68;95.82;100720.63;4984567;28;19956;-83
2021/12/13 15:35:40;;;;;;;;;;;;;;;2.64;95.41;100714.53;4986006;28;19962;-83
2021/12/13 15:38:09;;;;;;;;;;;;;;;2.65;94.98;100718.91;4986825;28;19917;-84
2021/12/13 15:40:45;;;;;;;;;;;;;;;2.60;94.59;100714.50;5003624;28;20312;-83
2021/12/13 15:43:13;;;;;;;;;;;;;;;2.57;94.44;100718.00;5002884;28;19965;-87
2021/12/13 15:45:41;;;;;;;;;;;;;;;2.58;94.10;100724.97;5003706;28;19933;-84
2021/12/13 15:50:55;;;;;;;;;;;;;;;2.56;94.01;100724.09;5003509;28;19971;-84
2021/12/13 15:53:20;;;;;;;;;;;;;;;2.53;93.81;100722.31;4986201;28;19960;-83
2021/12/13 15:55:48;;;;;;;;;;;;;;;2.49;93.40;100731.03;5009733;28;19964;-84
2021/12/13 15:58:16;;;;;;;;;;;;;;;2.45;93.16;100736.25;4985087;28;19921;-83
2021/12/13 16:00:41;;;;;;;;;;;;;;;2.48;93.06;100736.25;4985833;28;19922;-86
2021/12/13 16:03:13;;;;;;;;;;;;;;;2.45;92.68;100731.88;4985081;28;20012;-83
2021/12/13 16:05:38;;;;;;;;;;;;;;;2.41;92.42;100734.47;4975991;28;19934;-83
2021/12/13 16:08:04;;;;;;;;;;;;;;;2.40;92.21;100736.22;4991536;28;19944;-86
2021/12/13 16:10:30;;;;;;;;;;;;;;;2.40;92.03;100740.59;4992273;28;20384;-85
2021/12/13 16:12:56;;;;;;;;;;;;;;;2.35;91.49;100737.94;4992652;28;20012;-83
2021/12/13 16:15:23;;;;;;;;;;;;;;;2.32;91.26;100736.16;4991923;28;20016;-85
2021/12/13 16:17:50;;;;;;;;;;;;;;;2.32;91.03;100746.63;4992331;28;19953;-85
2021/12/13 16:20:20;;;;;;;;;;;;;;;2.29;90.86;100738.75;4993498;28;20430;-86
2021/12/13 16:22:51;;;;;;;;;;;;;;;2.26;90.72;100732.66;4992214;28;19922;-86
2021/12/13 16:25:23;;;;;;;;;;;;;;;2.26;90.59;100737.88;4990762;28;19933;-86
2021/12/13 16:27:48;;;;;;;;;;;;;;;2.26;90.53;100733.50;4984267;28;19925;-87
2021/12/13 16:30:19;;;;;;;;;;;;;;;2.25;90.22;100739.63;4993198;28;19918;-84
2021/12/13 16:32:45;;;;;;;;;;;;;;;2.21;89.96;100747.44;4991168;28;19922;-84
2021/12/13 16:35:11;;;;;;;;;;;;;;;2.22;89.89;100744.84;4974334;28;19926;-83
2021/12/13 16:37:36;;;;;;;;;;;;;;;2.20;89.97;100745.69;4975655;28;19924;-87
2021/12/13 16:40:03;;;;;;;;;;;;;;;2.21;89.73;100737.84;4991619;28;19925;-87
2021/12/13 16:42:28;;;;;;;;;;;;;;;2.20;89.57;100736.09;4990870;28;19941;-86
2021/12/13 16:44:53;;;;;;;;;;;;;;;2.14;89.36;100736.06;4991380;28;20353;-85
2021/12/13 16:47:19;;;;;;;;;;;;;;;2.14;89.10;100736.06;4990822;28;19997;-84
2021/12/13 16:49:47;;;;;;;;;;;;;;;2.11;89.05;100736.91;4990010;28;20377;-83
2021/12/13 16:52:14;;;;;;;;;;;;;;;2.15;88.79;100741.31;4975493;28;19964;-84
2021/12/13 16:54:51;;;;;;;;;;;;;;;2.10;88.72;100747.34;4990833;28;19918;-83
2021/12/13 16:57:19;;;;;;;;;;;;;;;2.11;88.85;100744.75;4975236;28;20449;-83
2021/12/13 16:59:46;;;;;;;;;;;;;;;2.12;88.69;100745.63;4992720;28;19976;-85
2021/12/13 17:02:12;;;;;;;;;;;;;;;2.11;88.51;100738.66;4986558;28;20387;-83
2021/12/13 17:04:50;;;;;;;;;;;;;;;2.08;88.24;100734.28;4995564;28;19953;-83
2021/12/13 17:07:17;;;;;;;;;;;;;;;2.07;88.26;100742.09;5002304;28;20066;-86
2021/12/13 17:10:12;;;;;;;;;;;;;;;2.07;88.13;100744.72;5002453;28;20402;-84
2021/12/13 17:12:49;;;;;;;;;;;;;;;2.04;87.68;100747.31;4967274;28;20378;-86
2021/12/13 17:15:16;;;;;;;;;;;;;;;2.04;87.52;100755.16;4984489;28;20000;-85
